createdAt,value
2023-04-21T00:01:40.852Z,98808.56
2023-04-21T00:04:10.044Z,98805.66
2023-04-21T00:06:37.501Z,98805.31
2023-04-21T00:09:05.528Z,98783.53
2023-04-21T00:11:32.520Z,98812.44
2023-04-21T00:13:59.541Z,98801.91
2023-04-21T00:16:26.386Z,98810.78
2023-04-21T00:18:53.210Z,98792.97
2023-04-21T00:21:20.153Z,98807.03
2023-04-21T00:23:47.553Z,98789.22
2023-04-21T00:26:14.656Z,98798.41
2023-04-21T00:28:43.755Z,98796.94
2023-04-21T00:31:10.867Z,98797.41
2023-04-21T00:33:37.843Z,98800.34
2023-04-21T00:36:05.031Z,98800.13
2023-04-21T00:38:31.945Z,98802.34
2023-04-21T00:40:59.142Z,98792.13
2023-04-21T00:43:26.195Z,98796.94
2023-04-21T00:45:54.524Z,98785.94
2023-04-21T00:48:21.464Z,98787.66
2023-04-21T00:50:48.859Z,98793.84
2023-04-21T00:53:16.066Z,98795.22
2023-04-21T00:55:43.041Z,98786.84
2023-04-21T00:58:10.088Z,98783.28
2023-04-21T01:00:38.419Z,98789.97
2023-04-21T01:03:07.187Z,98802.75
2023-04-21T01:05:34.537Z,98792.38
2023-04-21T01:08:02.853Z,98802.53
2023-04-21T01:10:29.903Z,98810.72
2023-04-21T01:12:56.744Z,98803.81
2023-04-21T01:15:26.227Z,98788.88
2023-04-21T01:17:54.213Z,98780.94
2023-04-21T01:20:21.242Z,98779.66
2023-04-21T01:22:50.001Z,98783.78
2023-04-21T01:25:18.729Z,98788.34
2023-04-21T01:27:45.600Z,98775.56
2023-04-21T01:30:13.145Z,98772.59
2023-04-21T01:32:40.057Z,98769.25
2023-04-21T01:35:08.665Z,98758.00
2023-04-21T01:37:38.270Z,98764.44
2023-04-21T01:40:09.536Z,98760.75
2023-04-21T01:42:37.937Z,98754.00
2023-04-21T01:45:05.614Z,98752.25
2023-04-21T01:47:32.690Z,98746.72
2023-04-21T01:49:59.628Z,98751.56
2023-04-21T01:52:26.515Z,98740.41
2023-04-21T01:54:54.629Z,98749.41
2023-04-21T01:57:21.711Z,98739.28
2023-04-21T01:59:50.608Z,98745.19
2023-04-21T02:02:17.677Z,98747.81
2023-04-21T02:04:44.775Z,98740.06
2023-04-21T02:07:11.878Z,98738.59
2023-04-21T02:09:41.042Z,98739.06
2023-04-21T02:12:08.234Z,98735.78
2023-04-21T02:14:36.858Z,98738.53
2023-04-21T02:17:04.184Z,98723.34
2023-04-21T02:19:31.407Z,98727.56
2023-04-21T02:21:58.406Z,98726.75
2023-04-21T02:24:25.638Z,98727.72
2023-04-21T02:26:53.996Z,98729.31
2023-04-21T02:29:21.001Z,98716.41
2023-04-21T02:31:59.343Z,98710.91
2023-04-21T02:34:28.456Z,98719.16
2023-04-21T02:36:55.529Z,98712.53
2023-04-21T02:39:22.299Z,98709.16
2023-04-21T02:41:49.398Z,98720.66
2023-04-21T02:44:16.381Z,98716.34
2023-04-21T02:46:44.925Z,98710.84
2023-04-21T02:49:11.880Z,98720.22
2023-04-21T02:51:38.896Z,98709.59
2023-04-21T02:54:05.921Z,98716.44
2023-04-21T02:56:34.804Z,98706.91
2023-04-21T02:59:01.664Z,98716.38
2023-04-21T03:01:28.662Z,98707.69
2023-04-21T03:03:55.710Z,98716.09
2023-04-21T03:06:22.767Z,98726.16
2023-04-21T03:08:49.648Z,98703.56
2023-04-21T03:11:16.601Z,98708.25
2023-04-21T03:13:45.560Z,98728.81
2023-04-21T03:16:13.469Z,98728.34
2023-04-21T03:18:40.631Z,98719.28
2023-04-21T03:21:07.461Z,98726.72
2023-04-21T03:23:34.415Z,98730.13
2023-04-21T03:26:01.354Z,98728.50
2023-04-21T03:28:28.254Z,98717.88
2023-04-21T03:30:55.370Z,98721.75
2023-04-21T03:33:22.437Z,98720.16
2023-04-21T03:35:49.232Z,98730.50
2023-04-21T03:38:16.360Z,98730.50
2023-04-21T03:40:43.413Z,98724.22
2023-04-21T03:43:10.469Z,98736.16
2023-04-21T03:45:38.257Z,98730.81
2023-04-21T03:48:05.658Z,98737.28
2023-04-21T03:50:32.797Z,98741.50
2023-04-21T03:52:59.835Z,98749.56
2023-04-21T03:55:26.823Z,98749.56
2023-04-21T03:57:53.839Z,98736.81
2023-04-21T04:00:21.248Z,98743.41
2023-04-21T04:02:48.416Z,98747.75
2023-04-21T04:05:15.919Z,98748.06
2023-04-21T04:07:42.961Z,98752.41
2023-04-21T04:10:09.773Z,98741.25
2023-04-21T04:12:36.700Z,98759.66
2023-04-21T04:15:03.778Z,98735.94
2023-04-21T04:17:31.104Z,98754.31
2023-04-21T04:19:58.145Z,98753.31
2023-04-21T04:22:25.359Z,98744.06
2023-04-21T04:27:21.483Z,98761.78
2023-04-21T04:29:49.365Z,98759.97
2023-04-21T04:32:16.284Z,98761.41
2023-04-21T04:34:43.577Z,98765.06
2023-04-21T04:37:11.333Z,98769.09
2023-04-21T04:39:38.624Z,98772.50
2023-04-21T04:42:11.827Z,98767.28
2023-04-21T04:44:39.042Z,98774.34
2023-04-21T04:47:06.215Z,98770.94
2023-04-21T04:49:33.568Z,98773.94
2023-04-21T04:52:03.309Z,98781.84
2023-04-21T04:54:30.210Z,98771.44
2023-04-21T04:56:58.023Z,98782.38
2023-04-21T04:59:25.300Z,98795.75
2023-04-21T05:01:52.750Z,98788.75
2023-04-21T05:04:20.673Z,98778.91
2023-04-21T05:06:47.999Z,98793.44
2023-04-21T05:09:14.897Z,98791.75
2023-04-21T05:11:41.931Z,98802.91
2023-04-21T05:14:08.945Z,98807.53
2023-04-21T05:16:35.884Z,98801.25
2023-04-21T05:19:03.159Z,98800.44
2023-04-21T05:21:31.492Z,98793.44
2023-04-21T05:23:59.466Z,98807.25
2023-04-21T05:26:27.852Z,98809.59
2023-04-21T05:28:58.377Z,98807.19
2023-04-21T05:31:25.684Z,98818.47
2023-04-21T05:33:52.813Z,98818.28
2023-04-21T05:36:24.910Z,98817.13
2023-04-21T05:38:52.757Z,98822.09
2023-04-21T05:41:19.696Z,98813.81
2023-04-21T05:43:47.622Z,98817.34
2023-04-21T05:46:14.812Z,98808.25
2023-04-21T05:48:41.866Z,98811.44
2023-04-21T05:51:11.128Z,98818.13
2023-04-21T05:53:39.567Z,98817.19
2023-04-21T05:56:08.579Z,98819.16
2023-04-21T05:58:36.187Z,98820.16
2023-04-21T06:01:03.889Z,98806.09
2023-04-21T06:03:32.427Z,98810.94
2023-04-21T06:06:04.375Z,98821.31
2023-04-21T06:08:31.667Z,98807.00
2023-04-21T06:10:58.829Z,98815.63
2023-04-21T06:13:27.785Z,98813.91
2023-04-21T06:15:55.252Z,98820.50
2023-04-21T06:18:22.475Z,98825.88
2023-04-21T06:20:53.957Z,98828.97
2023-04-21T06:23:21.230Z,98828.06
2023-04-21T06:26:04.266Z,98822.47
2023-04-21T06:28:32.127Z,98842.38
2023-04-21T06:31:04.079Z,98838.72
2023-04-21T06:33:32.640Z,98840.44
2023-04-21T06:35:59.692Z,98838.66
2023-04-21T06:38:26.567Z,98842.28
2023-04-21T06:40:53.530Z,98836.03
2023-04-21T06:43:20.650Z,98856.16
2023-04-21T06:45:51.038Z,98857.53
2023-04-21T06:48:18.175Z,98852.59
2023-04-21T06:50:46.426Z,98861.53
2023-04-21T06:53:13.520Z,98858.69
2023-04-21T06:55:40.556Z,98853.03
2023-04-21T06:58:07.476Z,98861.97
2023-04-21T07:00:34.470Z,98858.78
2023-04-21T07:03:01.530Z,98852.69
2023-04-21T07:05:29.096Z,98860.88
2023-04-21T07:07:59.850Z,98859.09
2023-04-21T07:10:27.941Z,98860.53
2023-04-21T07:12:55.889Z,98866.53
2023-04-21T07:15:23.272Z,98872.31
2023-04-21T07:17:50.243Z,98868.34
2023-04-21T07:20:18.809Z,98867.91
2023-04-21T07:22:46.069Z,98875.03
2023-04-21T07:25:13.200Z,98886.81
2023-04-21T07:27:41.567Z,98875.59
2023-04-21T07:30:09.443Z,98875.41
2023-04-21T07:32:38.863Z,98895.13
2023-04-21T07:35:07.022Z,98892.00
2023-04-21T07:37:34.009Z,98888.34
2023-04-21T07:40:01.459Z,98895.94
2023-04-21T07:42:28.569Z,98883.25
2023-04-21T07:44:56.200Z,98892.22
2023-04-21T07:47:23.381Z,98894.16
2023-04-21T07:49:50.776Z,98893.47
2023-04-21T07:52:17.797Z,98895.94
2023-04-21T07:54:44.826Z,98905.81
2023-04-21T07:57:11.804Z,98910.63
2023-04-21T07:59:38.726Z,98912.56
2023-04-21T08:02:06.026Z,98925.56
2023-04-21T08:04:33.032Z,98913.28
2023-04-21T08:07:00.487Z,98926.56
2023-04-21T08:09:27.628Z,98928.63
2023-04-21T08:11:55.416Z,98945.97
2023-04-21T08:14:22.317Z,98934.00
2023-04-21T08:16:49.765Z,98938.28
2023-04-21T08:19:16.935Z,98941.91
2023-04-21T08:21:43.846Z,98942.81
2023-04-21T08:24:10.933Z,98939.81
2023-04-21T08:26:37.855Z,98939.13
2023-04-21T08:29:07.499Z,98940.63
2023-04-21T08:31:34.890Z,98924.47
2023-04-21T08:34:03.031Z,98946.59
2023-04-21T08:36:30.861Z,98951.19
2023-04-21T08:38:58.106Z,98952.22
2023-04-21T08:41:26.482Z,98941.63
2023-04-21T08:43:53.605Z,98944.13
2023-04-21T08:46:21.745Z,98939.53
2023-04-21T08:48:48.743Z,98936.41
2023-04-21T08:51:22.534Z,98941.03
2023-04-21T08:53:49.325Z,98935.63
2023-04-21T08:56:16.480Z,98943.41
2023-04-21T08:58:43.464Z,98931.53
2023-04-21T09:01:11.273Z,98936.53
2023-04-21T09:03:38.442Z,98931.69
2023-04-21T09:06:08.838Z,98938.59
2023-04-21T09:08:43.463Z,98924.38
2023-04-21T09:11:14.954Z,98932.34
2023-04-21T09:13:43.982Z,98928.28
2023-04-21T09:16:21.166Z,98927.19
2023-04-21T09:18:49.613Z,98916.66
2023-04-21T09:21:18.328Z,98920.69
2023-04-21T09:23:49.994Z,98924.91
2023-04-21T09:26:19.103Z,98922.00
2023-04-21T09:28:48.471Z,98920.78
2023-04-21T09:31:20.117Z,98922.34
2023-04-21T09:33:58.736Z,98931.13
2023-04-21T09:36:29.698Z,98923.44
2023-04-21T09:41:34.455Z,98915.91
2023-04-21T09:44:02.109Z,98922.53
2023-04-21T09:46:38.489Z,98903.75
2023-04-21T09:49:06.611Z,98920.50
2023-04-21T09:54:28.501Z,98897.06
2023-04-21T09:57:02.527Z,98919.16
2023-04-21T09:59:33.064Z,98924.47
2023-04-21T10:02:01.360Z,98919.28
2023-04-21T10:04:31.667Z,98908.50
2023-04-21T10:07:00.410Z,98898.06
2023-04-21T10:09:56.349Z,98923.97
2023-04-21T10:12:25.179Z,98923.03
2023-04-21T10:14:56.980Z,98921.09
2023-04-21T10:17:26.261Z,98925.31
2023-04-21T10:19:57.312Z,98913.78
2023-04-21T10:22:32.813Z,98909.53
2023-04-21T10:25:02.459Z,98918.84
2023-04-21T10:27:36.649Z,98917.06
2023-04-21T10:30:23.481Z,98907.28
2023-04-21T10:33:03.730Z,98890.47
2023-04-21T10:36:03.446Z,98912.00
2023-04-21T10:38:44.504Z,98907.16
2023-04-21T10:41:28.290Z,98907.06
2023-04-21T10:43:59.524Z,98905.00
2023-04-21T10:46:35.317Z,98891.50
2023-04-21T10:49:07.092Z,98897.06
2023-04-21T10:52:03.498Z,98910.88
2023-04-21T10:54:37.334Z,98910.69
2023-04-21T10:57:08.216Z,98909.22
2023-04-21T10:59:36.175Z,98907.72
2023-04-21T11:02:07.863Z,98904.59
2023-04-21T11:04:35.375Z,98893.81
2023-04-21T11:07:08.197Z,98905.56
2023-04-21T11:09:36.859Z,98904.94
2023-04-21T11:12:07.555Z,98893.53
2023-04-21T11:14:37.038Z,98899.44
2023-04-21T11:17:12.921Z,98896.09
2023-04-21T11:19:40.588Z,98893.75
2023-04-21T11:22:07.792Z,98896.13
2023-04-21T11:24:34.999Z,98890.53
2023-04-21T11:27:02.279Z,98888.00
2023-04-21T11:29:29.921Z,98889.69
2023-04-21T11:31:59.033Z,98872.38
2023-04-21T11:34:26.961Z,98868.59
2023-04-21T11:36:54.212Z,98869.84
2023-04-21T11:39:22.246Z,98877.28
2023-04-21T11:41:51.216Z,98890.72
2023-04-21T11:44:36.510Z,98893.16
2023-04-21T11:47:33.461Z,98878.00
2023-04-21T11:50:04.152Z,98881.03
2023-04-21T11:52:37.492Z,98882.53
2023-04-21T11:55:15.521Z,98886.13
2023-04-21T11:57:42.507Z,98888.22
2023-04-21T12:00:14.570Z,98885.59
2023-04-21T12:02:42.885Z,98889.28
2023-04-21T12:05:12.230Z,98893.25
2023-04-21T12:07:42.784Z,98892.19
2023-04-21T12:10:11.840Z,98892.41
2023-04-21T12:12:39.642Z,98893.09
2023-04-21T12:15:07.725Z,98893.94
2023-04-21T12:17:39.711Z,98891.16
2023-04-21T12:20:07.739Z,98895.50
2023-04-21T12:22:34.937Z,98905.00
2023-04-21T12:25:02.007Z,98896.47
2023-04-21T12:27:29.289Z,98894.28
2023-04-21T12:29:56.095Z,98891.63
2023-04-21T12:32:23.192Z,98888.53
2023-04-21T12:34:50.287Z,98889.59
2023-04-21T12:37:17.364Z,98880.09
2023-04-21T12:39:44.164Z,98890.66
2023-04-21T12:42:11.226Z,98881.03
2023-04-21T12:44:38.866Z,98889.38
2023-04-21T12:47:06.460Z,98881.25
2023-04-21T12:49:33.266Z,98886.03
2023-04-21T12:52:00.456Z,98876.63
2023-04-21T12:54:27.326Z,98875.63
2023-04-21T12:56:54.431Z,98879.78
2023-04-21T12:59:21.815Z,98886.81
2023-04-21T13:01:49.003Z,98888.25
2023-04-21T13:04:16.086Z,98887.53
2023-04-21T13:06:43.150Z,98880.66
2023-04-21T13:09:10.103Z,98886.66
2023-04-21T13:11:37.169Z,98884.66
2023-04-21T13:14:04.324Z,98890.97
2023-04-21T13:16:31.954Z,98883.09
2023-04-21T13:18:59.304Z,98884.56
2023-04-21T13:21:26.597Z,98894.41
2023-04-21T13:23:53.903Z,98889.00
2023-04-21T13:26:21.295Z,98897.28
2023-04-21T13:28:48.356Z,98903.84
2023-04-21T13:31:15.790Z,98900.38
2023-04-21T13:33:43.147Z,98899.44
2023-04-21T13:36:12.905Z,98885.00
2023-04-21T13:38:41.156Z,98906.25
2023-04-21T13:41:08.391Z,98912.94
2023-04-21T13:43:35.879Z,98911.34
2023-04-21T13:46:03.011Z,98895.59
2023-04-21T13:48:30.173Z,98906.78
2023-04-21T13:50:57.233Z,98899.44
2023-04-21T13:53:24.408Z,98904.06
2023-04-21T13:55:51.303Z,98897.03
2023-04-21T13:58:18.401Z,98902.59
2023-04-21T14:00:45.582Z,98903.47
2023-04-21T14:03:12.713Z,98892.56
2023-04-21T14:05:40.276Z,98876.50
2023-04-21T14:08:07.893Z,98876.19
2023-04-21T14:10:34.660Z,98887.88
2023-04-21T14:13:01.770Z,98874.88
2023-04-21T14:15:28.672Z,98876.19
2023-04-21T14:18:03.094Z,98881.97
2023-04-21T14:20:29.989Z,98886.84
2023-04-21T14:22:56.931Z,98889.69
2023-04-21T14:25:24.037Z,98875.75
2023-04-21T14:27:51.023Z,98887.97
2023-04-21T14:30:18.516Z,98884.81
2023-04-21T14:32:46.228Z,98885.78
2023-04-21T14:35:13.601Z,98892.72
2023-04-21T14:37:41.262Z,98887.00
2023-04-21T14:40:09.527Z,98886.22
2023-04-21T14:42:36.877Z,98873.66
2023-04-21T14:45:04.119Z,98886.13
2023-04-21T14:47:31.177Z,98891.84
2023-04-21T14:49:58.329Z,98885.47
2023-04-21T14:52:27.014Z,98887.81
2023-04-21T14:54:54.063Z,98895.28
2023-04-21T14:57:22.113Z,98888.56
2023-04-21T14:59:51.926Z,98892.00
2023-04-21T15:02:22.625Z,98892.28
2023-04-21T15:04:50.185Z,98887.03
2023-04-21T15:07:24.207Z,98887.91
2023-04-21T15:09:52.695Z,98897.34
2023-04-21T15:12:19.603Z,98887.94
2023-04-21T15:14:47.022Z,98880.56
2023-04-21T15:17:14.074Z,98888.44
2023-04-21T15:19:40.849Z,98897.78
2023-04-21T15:22:07.936Z,98898.47
2023-04-21T15:24:34.916Z,98890.56
2023-04-21T15:27:02.532Z,98897.78
2023-04-21T15:29:29.692Z,98888.44
2023-04-21T15:31:56.747Z,98893.13
2023-04-21T15:34:23.758Z,98885.78
2023-04-21T15:36:50.747Z,98885.88
2023-04-21T15:39:17.690Z,98879.34
2023-04-21T15:41:44.669Z,98875.88
2023-04-21T15:44:11.664Z,98870.59
2023-04-21T15:46:38.659Z,98879.34
2023-04-21T15:49:05.864Z,98879.00
2023-04-21T15:51:34.230Z,98874.25
2023-04-21T15:54:01.298Z,98872.81
2023-04-21T15:56:28.318Z,98868.94
2023-04-21T15:58:57.217Z,98861.69
2023-04-21T16:01:24.784Z,98866.69
2023-04-21T16:03:53.647Z,98862.59
2023-04-21T16:06:21.662Z,98869.75
2023-04-21T16:09:07.456Z,98859.28
2023-04-21T16:11:34.474Z,98860.38
2023-04-21T16:14:01.605Z,98866.66
2023-04-21T16:16:28.705Z,98859.16
2023-04-21T16:18:55.489Z,98847.94
2023-04-21T16:21:23.874Z,98865.28
2023-04-21T16:23:50.858Z,98867.34
2023-04-21T16:26:17.982Z,98868.88
2023-04-21T16:28:45.017Z,98865.56
2023-04-21T16:31:34.428Z,98870.22
2023-04-21T16:34:01.387Z,98866.81
2023-04-21T16:36:29.279Z,98867.34
2023-04-21T16:38:56.421Z,98864.84
2023-04-21T16:41:30.758Z,98865.09
2023-04-21T16:43:57.674Z,98862.41
2023-04-21T16:52:59.963Z,98857.31
2023-04-21T16:55:25.104Z,98867.94
2023-04-21T16:57:52.374Z,98869.47
2023-04-21T17:00:19.640Z,98864.50
2023-04-21T17:02:46.660Z,98867.84
2023-04-21T17:05:15.888Z,98870.50
2023-04-21T17:07:43.312Z,98889.44
2023-04-21T17:10:10.926Z,98871.72
2023-04-21T17:12:37.731Z,98879.75
2023-04-21T17:15:05.768Z,98875.28
2023-04-21T17:17:48.896Z,98880.94
2023-04-21T17:20:16.127Z,98889.97
2023-04-21T17:22:43.187Z,98888.59
2023-04-21T17:25:11.135Z,98895.84
2023-04-21T17:27:40.746Z,98887.78
2023-04-21T17:30:09.684Z,98891.59
2023-04-21T17:32:37.289Z,98890.44
2023-04-21T17:35:05.853Z,98895.75
2023-04-21T17:37:34.150Z,98899.78
2023-04-21T17:40:03.272Z,98904.84
2023-04-21T17:42:30.872Z,98898.53
2023-04-21T17:44:57.861Z,98897.25
2023-04-21T17:47:24.764Z,98905.91
2023-04-21T17:49:51.761Z,98908.56
2023-04-21T17:52:18.743Z,98903.38
2023-04-21T17:54:46.204Z,98908.44
2023-04-21T17:57:13.434Z,98903.59
2023-04-21T17:59:40.736Z,98905.91
2023-04-21T18:02:08.003Z,98909.72
2023-04-21T18:04:35.230Z,98904.88
2023-04-21T18:07:03.320Z,98904.88
2023-04-21T18:09:30.396Z,98899.56
2023-04-21T18:11:58.542Z,98905.31
2023-04-21T18:14:25.848Z,98900.94
2023-04-21T18:16:53.354Z,98909.81
2023-04-21T18:19:20.314Z,98905.91
2023-04-21T18:21:47.279Z,98905.66
2023-04-21T18:24:14.788Z,98923.97
2023-04-21T18:26:41.645Z,98915.69
2023-04-21T18:29:08.643Z,98915.34
2023-04-21T18:31:36.409Z,98931.47
2023-04-21T18:34:03.411Z,98913.72
2023-04-21T18:36:33.165Z,98930.31
2023-04-21T18:39:20.575Z,98926.97
2023-04-21T18:42:14.154Z,98933.97
2023-04-21T18:44:41.305Z,98925.00
2023-04-21T18:47:08.266Z,98917.63
2023-04-21T18:49:35.608Z,98936.97
2023-04-21T18:52:02.905Z,98945.63
2023-04-21T18:54:29.779Z,98937.09
2023-04-21T18:56:57.748Z,98937.78
2023-04-21T18:59:25.524Z,98939.84
2023-04-21T19:01:53.635Z,98937.31
2023-04-21T19:04:21.078Z,98939.59
2023-04-21T19:06:49.084Z,98938.00
2023-04-21T19:09:17.023Z,98942.91
2023-04-21T19:11:44.203Z,98934.47
2023-04-21T19:14:11.581Z,98943.91
2023-04-21T19:16:38.631Z,98939.88
2023-04-21T19:19:06.169Z,98935.84
2023-04-21T19:21:33.461Z,98937.00
2023-04-21T19:24:00.562Z,98935.72
2023-04-21T19:26:34.234Z,98940.56
2023-04-21T19:29:01.269Z,98928.56
2023-04-21T19:31:28.118Z,98934.91
2023-04-21T19:33:55.093Z,98933.41
2023-04-21T19:36:22.206Z,98947.44
2023-04-21T19:38:50.560Z,98947.66
2023-04-21T19:41:17.794Z,98955.94
2023-04-21T19:43:44.870Z,98946.50
2023-04-21T19:46:12.088Z,98954.44
2023-04-21T19:48:41.334Z,98943.63
2023-04-21T19:51:09.516Z,98951.09
2023-04-21T19:53:36.434Z,98959.84
2023-04-21T19:56:03.397Z,98964.91
2023-04-21T19:58:41.188Z,98958.09
2023-04-21T20:01:09.573Z,98947.06
2023-04-21T20:03:38.483Z,98960.66
2023-04-21T20:06:06.840Z,98954.31
2023-04-21T20:08:34.040Z,98960.53
2023-04-21T20:11:00.945Z,98962.69
2023-04-21T20:13:27.863Z,98965.91
2023-04-21T20:15:55.416Z,98964.16
2023-04-21T20:18:22.548Z,98966.78
2023-04-21T20:20:49.474Z,98961.63
2023-04-21T20:23:16.550Z,98940.63
2023-04-21T20:25:43.588Z,98969.28
2023-04-21T20:28:10.950Z,98967.53
2023-04-21T20:30:37.720Z,98961.69
2023-04-21T20:33:05.044Z,98977.91
2023-04-21T20:35:34.331Z,98983.91
2023-04-21T20:38:01.509Z,98972.25
2023-04-21T20:40:28.429Z,98966.59
2023-04-21T20:42:55.545Z,98955.13
2023-04-21T20:45:22.500Z,98968.34
2023-04-21T20:47:49.380Z,98970.63
2023-04-21T20:50:16.751Z,98962.25
2023-04-21T20:52:43.787Z,98966.59
2023-04-21T20:55:11.298Z,98967.41
2023-04-21T20:57:38.388Z,98964.41
2023-04-21T21:00:06.618Z,98972.13
2023-04-21T21:02:34.336Z,98970.63
2023-04-21T21:05:01.404Z,98970.53
2023-04-21T21:07:28.608Z,98966.41
2023-04-21T21:09:56.246Z,98969.34
2023-04-21T21:12:23.136Z,98970.97
2023-04-21T21:14:50.532Z,98973.16
2023-04-21T21:17:17.367Z,98965.69
2023-04-21T21:19:44.558Z,98970.63
2023-04-21T21:22:11.509Z,98978.91
2023-04-21T21:24:39.088Z,98972.59
2023-04-21T21:27:06.074Z,98978.13
2023-04-21T21:29:33.196Z,98966.59
2023-04-21T21:32:00.028Z,98977.63
2023-04-21T21:34:27.175Z,98969.84
2023-04-21T21:36:53.994Z,98985.25
2023-04-21T21:39:21.149Z,98986.72
2023-04-21T21:41:47.988Z,98968.91
2023-04-21T21:44:15.031Z,98975.59
2023-04-21T21:46:42.471Z,98974.78
2023-04-21T21:49:10.655Z,98982.25
2023-04-21T21:51:37.501Z,98988.94
2023-04-21T21:54:05.581Z,98971.91
2023-04-21T21:56:32.768Z,98983.16
2023-04-21T21:58:59.638Z,98988.69
2023-04-21T22:01:26.660Z,98977.75
2023-04-21T22:03:54.121Z,98988.78
2023-04-21T22:06:26.636Z,98968.72
2023-04-21T22:08:53.690Z,98988.84
2023-04-21T22:11:20.832Z,98984.13
2023-04-21T22:13:47.796Z,98977.53
2023-04-21T22:16:14.856Z,98977.03
2023-04-21T22:18:41.769Z,98995.03
2023-04-21T22:21:08.932Z,98988.56
2023-04-21T22:23:36.457Z,98997.66
2023-04-21T22:26:03.488Z,98978.53
2023-04-21T22:28:30.346Z,98992.59
2023-04-21T22:30:57.616Z,98992.47
2023-04-21T22:33:24.502Z,98997.03
2023-04-21T22:35:51.468Z,99002.69
2023-04-21T22:38:18.325Z,98995.41
2023-04-21T22:40:45.274Z,98989.28
2023-04-21T22:43:12.312Z,98988.34
2023-04-21T22:45:39.207Z,98988.53
2023-04-21T22:48:06.223Z,98993.72
2023-04-21T22:50:34.722Z,98984.66
2023-04-21T22:53:01.668Z,99002.16
2023-04-21T22:55:28.981Z,98997.47
2023-04-21T22:57:55.923Z,98987.44
2023-04-21T23:00:22.865Z,98996.19
2023-04-21T23:02:49.903Z,98987.44
2023-04-21T23:05:17.368Z,98989.72
2023-04-21T23:07:44.285Z,98987.44
2023-04-21T23:10:11.583Z,98980.50
2023-04-21T23:12:38.580Z,98987.25
2023-04-21T23:15:06.084Z,98993.91
2023-04-21T23:17:33.006Z,98992.28
2023-04-21T23:20:02.380Z,98993.00
2023-04-21T23:22:29.216Z,98996.56
2023-04-21T23:24:56.576Z,98993.03
2023-04-21T23:27:23.383Z,99000.59
2023-04-21T23:29:50.149Z,98993.47
2023-04-21T23:32:17.304Z,98991.19
2023-04-21T23:34:44.556Z,99000.75
2023-04-21T23:37:11.771Z,99001.88
2023-04-21T23:39:39.112Z,98994.78
2023-04-21T23:42:06.426Z,99002.09
2023-04-21T23:44:33.304Z,99014.91
2023-04-21T23:47:00.341Z,99005.53
2023-04-21T23:49:27.153Z,99003.25
2023-04-21T23:51:54.165Z,99002.19
2023-04-21T23:54:21.319Z,99014.75
2023-04-21T23:56:48.288Z,99010.44
2023-04-21T23:59:15.460Z,98994.91
